BIKF

Keflavik International Airport

Reykjavík, Iceland
METAR BIKF 161530Z 11038G56KT 8000 -DZ BR BKN014 OVC021 08/06 Q0995 R88/D
Observed Flight Rules
Nov-16 @ 15:30 UTC (34 minutes ago) Marginal Visual Flight Rules
Wind Visibility Clouds Conditions
110° at 38 knots
 Gusting to 56 knots
7,998 meters
  • Broken at 1,400' AGL
  • Overcast at 2,100' AGL
  • Light Drizzle
  • Mist
Temperatures Readings
Current 8°C / 46°F
Dewpoint 6°C / 43°F
Humidity 87%
Altimeter 29.38" Hg
Pressure 995 hPa
Elevation 54
METAR BIKF 161530Z 11038G56KT 8000 -DZ BR BKN014 OVC021 08/06 Q0995 R88/D
Observed Flight Rules
Nov-16 @ 15:30 UTC
(34 minutes ago)
MVFR
Wind Visibility
110° at 38 knots
 Gusting to 56 knots
7,998 meters
Clouds
  • Broken at 1,400' AGL
  • Overcast at 2,100' AGL
Conditions
  • Light Drizzle
  • Mist
Temperature Dewpoint
8°C / 46°F 6°C / 43°F
Humidity Altimeter Pressure
87% 29.38" Hg 995 hPa